sensor_id;sensor_type;location;lat;lon;timestamp;pressure;altitude;pressure_sealevel;temperature;humidity
74544;BME280;63016;55.030;38.710;2024-02-15T00:00:36;101506.66;;;-9.03;58.18
74544;BME280;63016;55.030;38.710;2024-02-15T00:03:03;101510.88;;;-9.07;58.38
74544;BME280;63016;55.030;38.710;2024-02-15T00:05:32;101513.41;;;-9.02;58.47
74544;BME280;63016;55.030;38.710;2024-02-15T00:07:57;101516.78;;;-9.02;58.76
74544;BME280;63016;55.030;38.710;2024-02-15T00:10:23;101510.03;;;-9.01;58.54
74544;BME280;63016;55.030;38.710;2024-02-15T00:12:50;101506.66;;;-8.99;58.33
74544;BME280;63016;55.030;38.710;2024-02-15T00:15:16;101504.16;;;-9.03;58.34
74544;BME280;63016;55.030;38.710;2024-02-15T00:17:42;101506.66;;;-8.97;58.44
74544;BME280;63016;55.030;38.710;2024-02-15T00:20:07;101496.53;;;-8.97;58.60
74544;BME280;63016;55.030;38.710;2024-02-15T00:22:35;101507.50;;;-8.94;59.01
74544;BME280;63016;55.030;38.710;2024-02-15T00:25:01;101485.59;;;-9.04;58.17
74544;BME280;63016;55.030;38.710;2024-02-15T00:27:26;101491.47;;;-9.05;58.56
74544;BME280;63016;55.030;38.710;2024-02-15T00:29:52;101492.34;;;-8.98;58.85
74544;BME280;63016;55.030;38.710;2024-02-15T00:32:17;101489.78;;;-9.04;58.55
74544;BME280;63016;55.030;38.710;2024-02-15T00:34:42;101480.56;;;-9.09;58.20
74544;BME280;63016;55.030;38.710;2024-02-15T00:37:08;101499.91;;;-9.01;58.29
74544;BME280;63016;55.030;38.710;2024-02-15T00:39:33;101499.06;;;-9.00;58.53
74544;BME280;63016;55.030;38.710;2024-02-15T00:41:59;101501.59;;;-8.99;58.95
74544;BME280;63016;55.030;38.710;2024-02-15T00:44:26;101497.38;;;-8.98;58.40
74544;BME280;63016;55.030;38.710;2024-02-15T00:46:52;101496.53;;;-8.97;58.68
74544;BME280;63016;55.030;38.710;2024-02-15T00:49:17;101499.06;;;-9.00;58.71
74544;BME280;63016;55.030;38.710;2024-02-15T00:51:46;101492.31;;;-8.95;59.21
74544;BME280;63016;55.030;38.710;2024-02-15T00:54:12;101474.63;;;-9.01;58.82
74544;BME280;63016;55.030;38.710;2024-02-15T00:56:37;101484.72;;;-8.94;58.77
74544;BME280;63016;55.030;38.710;2024-02-15T00:59:03;101478.00;;;-8.98;58.66
74544;BME280;63016;55.030;38.710;2024-02-15T01:01:30;101488.94;;;-8.93;58.83
74544;BME280;63016;55.030;38.710;2024-02-15T01:03:56;101484.72;;;-8.94;58.88
74544;BME280;63016;55.030;38.710;2024-02-15T01:06:21;101487.25;;;-8.91;59.12
74544;BME280;63016;55.030;38.710;2024-02-15T01:08:47;101488.09;;;-8.87;58.72
74544;BME280;63016;55.030;38.710;2024-02-15T01:11:13;101488.91;;;-8.85;58.95
74544;BME280;63016;55.030;38.710;2024-02-15T01:13:39;101479.66;;;-8.88;58.99
74544;BME280;63016;55.030;38.710;2024-02-15T01:16:04;101483.88;;;-8.91;58.59
74544;BME280;63016;55.030;38.710;2024-02-15T01:18:30;101477.16;;;-9.01;57.84
74544;BME280;63016;55.030;38.710;2024-02-15T01:20:59;101491.50;;;-8.99;58.11
74544;BME280;63016;55.030;38.710;2024-02-15T01:23:25;101492.31;;;-9.01;58.40
74544;BME280;63016;55.030;38.710;2024-02-15T01:25:51;101485.59;;;-9.02;58.43
74544;BME280;63016;55.030;38.710;2024-02-15T01:28:17;101481.38;;;-9.05;58.62
74544;BME280;63016;55.030;38.710;2024-02-15T01:30:43;101478.00;;;-9.06;58.21
74544;BME280;63016;55.030;38.710;2024-02-15T01:33:09;101483.06;;;-9.07;58.26
74544;BME280;63016;55.030;38.710;2024-02-15T01:35:36;101486.44;;;-9.07;58.02
74544;BME280;63016;55.030;38.710;2024-02-15T01:38:02;101478.03;;;-9.16;58.46
74544;BME280;63016;55.030;38.710;2024-02-15T01:40:28;101485.59;;;-9.10;58.83
74544;BME280;63016;55.030;38.710;2024-02-15T01:42:53;101483.91;;;-9.10;58.63
74544;BME280;63016;55.030;38.710;2024-02-15T01:45:20;101480.53;;;-9.07;58.93
74544;BME280;63016;55.030;38.710;2024-02-15T01:47:47;101487.25;;;-9.09;58.40
74544;BME280;63016;55.030;38.710;2024-02-15T01:50:13;101485.59;;;-9.06;58.34
74544;BME280;63016;55.030;38.710;2024-02-15T01:52:40;101486.44;;;-9.07;58.26
74544;BME280;63016;55.030;38.710;2024-02-15T01:55:06;101469.63;;;-9.18;58.15
74544;BME280;63016;55.030;38.710;2024-02-15T01:57:33;101471.28;;;-9.25;58.05
74544;BME280;63016;55.030;38.710;2024-02-15T01:59:58;101494.03;;;-9.19;58.20
74544;BME280;63016;55.030;38.710;2024-02-15T02:02:25;101485.59;;;-9.19;58.56
74544;BME280;63016;55.030;38.710;2024-02-15T02:04:54;101472.97;;;-9.25;58.98
74544;BME280;63016;55.030;38.710;2024-02-15T02:07:19;101493.19;;;-9.12;58.57
74544;BME280;63016;55.030;38.710;2024-02-15T02:09:46;101499.09;;;-9.13;58.87
74544;BME280;63016;55.030;38.710;2024-02-15T02:12:12;101500.78;;;-9.07;58.23
74544;BME280;63016;55.030;38.710;2024-02-15T02:14:37;101505.84;;;-9.09;58.68
74544;BME280;63016;55.030;38.710;2024-02-15T02:17:13;101510.03;;;-9.09;58.30
74544;BME280;63016;55.030;38.710;2024-02-15T02:19:39;101502.47;;;-9.14;58.36
74544;BME280;63016;55.030;38.710;2024-02-15T02:22:05;101515.09;;;-9.11;58.63
74544;BME280;63016;55.030;38.710;2024-02-15T02:24:33;101512.59;;;-9.18;58.02
74544;BME280;63016;55.030;38.710;2024-02-15T02:27:05;101510.88;;;-9.16;58.52
74544;BME280;63016;55.030;38.710;2024-02-15T02:29:33;101506.66;;;-9.19;58.54
74544;BME280;63016;55.030;38.710;2024-02-15T02:31:58;101502.47;;;-9.21;58.06
74544;BME280;63016;55.030;38.710;2024-02-15T02:34:23;101494.88;;;-9.30;57.98
74544;BME280;63016;55.030;38.710;2024-02-15T02:36:50;101506.69;;;-9.25;58.77
74544;BME280;63016;55.030;38.710;2024-02-15T02:39:16;101512.56;;;-9.20;58.82
74544;BME280;63016;55.030;38.710;2024-02-15T02:41:42;101510.06;;;-9.21;58.49
74544;BME280;63016;55.030;38.710;2024-02-15T02:44:08;101510.88;;;-9.16;58.00
74544;BME280;63016;55.030;38.710;2024-02-15T02:46:34;101493.22;;;-9.27;58.44
74544;BME280;63016;55.030;38.710;2024-02-15T02:48:59;101505.81;;;-9.24;58.38
74544;BME280;63016;55.030;38.710;2024-02-15T02:51:25;101482.25;;;-9.44;58.28
74544;BME280;63016;55.030;38.710;2024-02-15T02:53:50;101507.53;;;-9.32;58.32
74544;BME280;63016;55.030;38.710;2024-02-15T02:56:16;101523.53;;;-9.24;58.01
74544;BME280;63016;55.030;38.710;2024-02-15T02:58:43;101523.53;;;-9.24;58.05
74544;BME280;63016;55.030;38.710;2024-02-15T03:01:09;101526.91;;;-9.28;57.98
74544;BME280;63016;55.030;38.710;2024-02-15T03:03:36;101532.78;;;-9.29;58.07
74544;BME280;63016;55.030;38.710;2024-02-15T03:06:01;101532.78;;;-9.29;58.56
74544;BME280;63016;55.030;38.710;2024-02-15T03:08:27;101533.66;;;-9.27;58.53
74544;BME280;63016;55.030;38.710;2024-02-15T03:10:53;101534.47;;;-9.25;58.75
74544;BME280;63016;55.030;38.710;2024-02-15T03:13:18;101535.34;;;-9.23;58.57
74544;BME280;63016;55.030;38.710;2024-02-15T03:15:46;101535.34;;;-9.23;58.45
74544;BME280;63016;55.030;38.710;2024-02-15T03:18:16;101535.34;;;-9.23;57.99
74544;BME280;63016;55.030;38.710;2024-02-15T03:20:42;101522.69;;;-9.30;57.90
74544;BME280;63016;55.030;38.710;2024-02-15T03:23:08;101537.03;;;-9.33;58.08
74544;BME280;63016;55.030;38.710;2024-02-15T03:25:33;101530.28;;;-9.35;58.08
74544;BME280;63016;55.030;38.710;2024-02-15T03:28:00;101526.06;;;-9.41;58.30
74544;BME280;63016;55.030;38.710;2024-02-15T03:30:30;101517.63;;;-9.46;58.30
74544;BME280;63016;55.030;38.710;2024-02-15T03:32:56;101534.47;;;-9.39;58.26
74544;BME280;63016;55.030;38.710;2024-02-15T03:35:24;101536.19;;;-9.42;58.06
74544;BME280;63016;55.030;38.710;2024-02-15T03:37:51;101538.69;;;-9.41;58.43
74544;BME280;63016;55.030;38.710;2024-02-15T03:40:17;101535.31;;;-9.35;58.95
74544;BME280;63016;55.030;38.710;2024-02-15T03:42:43;101529.41;;;-9.34;58.34
74544;BME280;63016;55.030;38.710;2024-02-15T03:45:09;101532.78;;;-9.35;58.27
74544;BME280;63016;55.030;38.710;2024-02-15T03:47:36;101519.31;;;-9.43;57.94
74544;BME280;63016;55.030;38.710;2024-02-15T03:50:06;101521.81;;;-9.48;57.68
74544;BME280;63016;55.030;38.710;2024-02-15T03:52:35;101513.41;;;-9.50;57.83
74544;BME280;63016;55.030;38.710;2024-02-15T03:55:00;101503.31;;;-9.59;58.32
74544;BME280;63016;55.030;38.710;2024-02-15T03:57:28;101511.72;;;-9.52;57.98
74544;BME280;63016;55.030;38.710;2024-02-15T03:59:54;101519.31;;;-9.51;58.36
74544;BME280;63016;55.030;38.710;2024-02-15T04:02:23;101512.56;;;-9.53;58.21
74544;BME280;63016;55.030;38.710;2024-02-15T04:04:54;101497.41;;;-9.63;58.40
74544;BME280;63016;55.030;38.710;2024-02-15T04:07:21;101510.91;;;-9.56;57.93
74544;BME280;63016;55.030;38.710;2024-02-15T04:09:47;101515.09;;;-9.63;57.97
74544;BME280;63016;55.030;38.710;2024-02-15T04:12:13;101503.28;;;-9.68;57.74
74544;BME280;63016;55.030;38.710;2024-02-15T04:14:40;101503.28;;;-9.68;58.27
74544;BME280;63016;55.030;38.710;2024-02-15T04:17:06;101500.78;;;-9.70;58.54
74544;BME280;63016;55.030;38.710;2024-02-15T04:19:32;101505.84;;;-9.65;58.05
74544;BME280;63016;55.030;38.710;2024-02-15T04:21:58;101507.53;;;-9.66;58.12
74544;BME280;63016;55.030;38.710;2024-02-15T04:24:25;101510.88;;;-9.62;58.24
74544;BME280;63016;55.030;38.710;2024-02-15T04:26:51;101505.00;;;-9.66;58.11
74544;BME280;63016;55.030;38.710;2024-02-15T04:29:17;101505.84;;;-9.67;58.43
74544;BME280;63016;55.030;38.710;2024-02-15T04:31:45;101518.47;;;-9.61;58.32
74544;BME280;63016;55.030;38.710;2024-02-15T04:34:17;101509.19;;;-9.59;58.35
74544;BME280;63016;55.030;38.710;2024-02-15T04:36:46;101512.56;;;-9.58;58.30
74544;BME280;63016;55.030;38.710;2024-02-15T04:39:16;101512.56;;;-9.60;58.38
74544;BME280;63016;55.030;38.710;2024-02-15T04:41:50;101492.34;;;-9.67;57.77
74544;BME280;63016;55.030;38.710;2024-02-15T04:44:16;101505.81;;;-9.68;57.94
74544;BME280;63016;55.030;38.710;2024-02-15T04:46:41;101497.41;;;-9.67;57.72
74544;BME280;63016;55.030;38.710;2024-02-15T04:49:10;101510.88;;;-9.70;57.94
74544;BME280;63016;55.030;38.710;2024-02-15T04:51:35;101515.94;;;-9.71;58.23
74544;BME280;63016;55.030;38.710;2024-02-15T04:54:01;101510.03;;;-9.70;58.26
74544;BME280;63016;55.030;38.710;2024-02-15T04:56:27;101509.22;;;-9.66;58.73
74544;BME280;63016;55.030;38.710;2024-02-15T04:58:52;101510.03;;;-9.69;58.25
74544;BME280;63016;55.030;38.710;2024-02-15T05:01:19;101511.72;;;-9.66;57.99
74544;BME280;63016;55.030;38.710;2024-02-15T05:03:44;101512.56;;;-9.66;58.11
74544;BME280;63016;55.030;38.710;2024-02-15T05:06:10;101515.94;;;-9.68;58.14
74544;BME280;63016;55.030;38.710;2024-02-15T05:08:39;101521.81;;;-9.68;57.99
74544;BME280;63016;55.030;38.710;2024-02-15T05:11:11;101506.69;;;-9.71;58.29
74544;BME280;63016;55.030;38.710;2024-02-15T05:13:46;101513.41;;;-9.68;58.56
74544;BME280;63016;55.030;38.710;2024-02-15T05:16:12;101504.97;;;-9.63;58.05
74544;BME280;63016;55.030;38.710;2024-02-15T05:18:37;101512.56;;;-9.60;58.18
74544;BME280;63016;55.030;38.710;2024-02-15T05:21:05;101509.22;;;-9.60;58.36
74544;BME280;63016;55.030;38.710;2024-02-15T05:23:35;101510.88;;;-9.54;58.61
74544;BME280;63016;55.030;38.710;2024-02-15T05:26:00;101507.53;;;-9.56;58.06
74544;BME280;63016;55.030;38.710;2024-02-15T05:28:26;101513.41;;;-9.61;57.79
74544;BME280;63016;55.030;38.710;2024-02-15T05:31:11;101528.56;;;-9.62;58.37
74544;BME280;63016;55.030;38.710;2024-02-15T05:33:39;101519.31;;;-9.62;57.99
74544;BME280;63016;55.030;38.710;2024-02-15T05:36:11;101513.41;;;-9.68;57.76
74544;BME280;63016;55.030;38.710;2024-02-15T05:38:37;101525.19;;;-9.63;57.98
74544;BME280;63016;55.030;38.710;2024-02-15T05:41:02;101518.47;;;-9.67;58.79
74544;BME280;63016;55.030;38.710;2024-02-15T05:43:28;101520.13;;;-9.67;58.47
74544;BME280;63016;55.030;38.710;2024-02-15T05:45:54;101533.63;;;-9.64;58.45
74544;BME280;63016;55.030;38.710;2024-02-15T05:48:20;101526.88;;;-9.63;58.01
74544;BME280;63016;55.030;38.710;2024-02-15T05:50:46;101521.00;;;-9.67;58.12
74544;BME280;63016;55.030;38.710;2024-02-15T05:53:12;101536.97;;;-9.63;58.48
74544;BME280;63016;55.030;38.710;2024-02-15T05:55:37;101527.72;;;-9.66;57.91
74544;BME280;63016;55.030;38.710;2024-02-15T05:58:06;101522.66;;;-9.67;58.14
74544;BME280;63016;55.030;38.710;2024-02-15T06:00:34;101519.31;;;-9.65;58.32
74544;BME280;63016;55.030;38.710;2024-02-15T06:03:00;101532.78;;;-9.56;58.48
74544;BME280;63016;55.030;38.710;2024-02-15T06:05:28;101547.94;;;-9.50;58.61
74544;BME280;63016;55.030;38.710;2024-02-15T06:07:53;101536.16;;;-9.48;58.32
74544;BME280;63016;55.030;38.710;2024-02-15T06:10:19;101553.88;;;-9.47;59.13
74544;BME280;63016;55.030;38.710;2024-02-15T06:12:44;101551.34;;;-9.42;58.89
74544;BME280;63016;55.030;38.710;2024-02-15T06:15:10;101561.44;;;-9.38;58.54
74544;BME280;63016;55.030;38.710;2024-02-15T06:17:41;101526.03;;;-9.62;58.22
74544;BME280;63016;55.030;38.710;2024-02-15T06:20:12;101572.38;;;-9.34;58.50
74544;BME280;63016;55.030;38.710;2024-02-15T06:22:43;101559.75;;;-9.49;58.57
74544;BME280;63016;55.030;38.710;2024-02-15T06:25:10;101579.97;;;-9.37;58.32
74544;BME280;63016;55.030;38.710;2024-02-15T06:27:37;101573.22;;;-9.35;59.09
74544;BME280;63016;55.030;38.710;2024-02-15T06:30:07;101579.97;;;-9.34;59.04
74544;BME280;63016;55.030;38.710;2024-02-15T06:32:51;101588.41;;;-9.26;58.49
74544;BME280;63016;55.030;38.710;2024-02-15T06:35:35;101583.34;;;-9.29;58.79
74544;BME280;63016;55.030;38.710;2024-02-15T06:38:20;101592.63;;;-9.22;59.16
74544;BME280;63016;55.030;38.710;2024-02-15T06:41:03;101580.00;;;-9.28;59.12
74544;BME280;63016;55.030;38.710;2024-02-15T06:43:29;101604.44;;;-9.18;58.66
74544;BME280;63016;55.030;38.710;2024-02-15T06:45:55;101599.34;;;-9.15;58.96
74544;BME280;63016;55.030;38.710;2024-02-15T06:48:20;101598.53;;;-9.17;58.77
74544;BME280;63016;55.030;38.710;2024-02-15T06:50:49;101598.53;;;-9.11;58.79
74544;BME280;63016;55.030;38.710;2024-02-15T06:53:14;101594.31;;;-9.13;58.99
74544;BME280;63016;55.030;38.710;2024-02-15T06:55:40;101599.38;;;-9.10;58.51
74544;BME280;63016;55.030;38.710;2024-02-15T06:58:05;101598.53;;;-9.14;58.73
74544;BME280;63016;55.030;38.710;2024-02-15T07:00:31;101578.31;;;-9.21;58.82
74544;BME280;63016;55.030;38.710;2024-02-15T07:02:56;101586.75;;;-9.18;58.70
74544;BME280;63016;55.030;38.710;2024-02-15T07:05:22;101591.78;;;-9.12;58.53
74544;BME280;63016;55.030;38.710;2024-02-15T07:07:49;101583.38;;;-9.17;58.42
74544;BME280;63016;55.030;38.710;2024-02-15T07:10:15;101579.16;;;-9.22;58.50
74544;BME280;63016;55.030;38.710;2024-02-15T07:12:42;101597.66;;;-9.19;58.47
74544;BME280;63016;55.030;38.710;2024-02-15T07:15:09;101595.16;;;-9.17;58.40
74544;BME280;63016;55.030;38.710;2024-02-15T07:17:35;101592.59;;;-9.19;58.22
74544;BME280;63016;55.030;38.710;2024-02-15T07:20:03;101580.84;;;-9.23;58.75
74544;BME280;63016;55.030;38.710;2024-02-15T07:22:30;101582.50;;;-9.20;58.23
74544;BME280;63016;55.030;38.710;2024-02-15T07:24:57;101580.84;;;-9.21;58.21
74544;BME280;63016;55.030;38.710;2024-02-15T07:27:22;101580.00;;;-9.22;58.52
74544;BME280;63016;55.030;38.710;2024-02-15T07:29:51;101534.47;;;-9.52;58.79
74544;BME280;63016;55.030;38.710;2024-02-15T07:32:16;101575.78;;;-9.23;58.68
74544;BME280;63016;55.030;38.710;2024-02-15T07:34:43;101580.00;;;-9.22;58.53
74544;BME280;63016;55.030;38.710;2024-02-15T07:37:10;101568.19;;;-9.29;58.70
74544;BME280;63016;55.030;38.710;2024-02-15T07:39:37;101567.34;;;-9.33;58.57
74544;BME280;63016;55.030;38.710;2024-02-15T07:42:03;101579.13;;;-9.28;58.36
74544;BME280;63016;55.030;38.710;2024-02-15T07:44:36;101593.47;;;-9.26;58.71
74544;BME280;63016;55.030;38.710;2024-02-15T07:47:02;101591.75;;;-9.24;58.96
74544;BME280;63016;55.030;38.710;2024-02-15T07:49:28;101567.31;;;-9.45;58.89
74544;BME280;63016;55.030;38.710;2024-02-15T07:51:54;101612.84;;;-9.20;59.61
74544;BME280;63016;55.030;38.710;2024-02-15T07:54:20;101612.03;;;-9.13;59.09
74544;BME280;63016;55.030;38.710;2024-02-15T07:56:48;101610.31;;;-9.11;58.74
74544;BME280;63016;55.030;38.710;2024-02-15T07:59:14;101602.75;;;-9.08;59.03
74544;BME280;63016;55.030;38.710;2024-02-15T08:01:44;101610.31;;;-9.07;59.27
74544;BME280;63016;55.030;38.710;2024-02-15T08:04:15;101607.81;;;-9.03;58.91
74544;BME280;63016;55.030;38.710;2024-02-15T08:06:42;101604.44;;;-9.01;59.10
74544;BME280;63016;55.030;38.710;2024-02-15T08:09:07;101603.56;;;-8.95;58.92
74544;BME280;63016;55.030;38.710;2024-02-15T08:11:39;101598.53;;;-8.95;59.22
74544;BME280;63016;55.030;38.710;2024-02-15T08:14:05;101600.22;;;-8.94;58.48
74544;BME280;63016;55.030;38.710;2024-02-15T08:16:33;101604.41;;;-8.95;58.32
74544;BME280;63016;55.030;38.710;2024-02-15T08:19:00;101606.97;;;-9.02;58.84
74544;BME280;63016;55.030;38.710;2024-02-15T08:23:54;101607.78;;;-9.00;58.74
74544;BME280;63016;55.030;38.710;2024-02-15T08:26:21;101611.16;;;-8.95;58.81
74544;BME280;63016;55.030;38.710;2024-02-15T08:28:46;101612.88;;;-8.94;58.80
74544;BME280;63016;55.030;38.710;2024-02-15T08:31:12;101621.28;;;-8.88;59.04
74544;BME280;63016;55.030;38.710;2024-02-15T08:33:43;101621.28;;;-8.88;59.08
74544;BME280;63016;55.030;38.710;2024-02-15T08:36:09;101628.88;;;-8.88;58.59
74544;BME280;63016;55.030;38.710;2024-02-15T08:38:36;101626.38;;;-8.85;59.41
74544;BME280;63016;55.030;38.710;2024-02-15T08:41:02;101614.53;;;-8.83;59.21
74544;BME280;63016;55.030;38.710;2024-02-15T08:43:29;101608.63;;;-8.82;58.80
74544;BME280;63016;55.030;38.710;2024-02-15T08:45:58;101613.69;;;-8.77;59.01
74544;BME280;63016;55.030;38.710;2024-02-15T08:48:23;101596.84;;;-8.84;59.24
74544;BME280;63016;55.030;38.710;2024-02-15T08:50:49;101616.22;;;-8.69;59.52
74544;BME280;63016;55.030;38.710;2024-02-15T08:53:15;101615.38;;;-8.65;59.88
74544;BME280;63016;55.030;38.710;2024-02-15T08:55:41;101602.72;;;-8.68;59.43
74544;BME280;63016;55.030;38.710;2024-02-15T08:58:06;101615.34;;;-8.51;59.80
74544;BME280;63016;55.030;38.710;2024-02-15T09:00:34;101617.03;;;-8.53;60.10
74544;BME280;63016;55.030;38.710;2024-02-15T09:03:00;101621.22;;;-8.39;60.11
74544;BME280;63016;55.030;38.710;2024-02-15T09:05:26;101616.94;;;-8.32;59.65
74544;BME280;63016;55.030;38.710;2024-02-15T09:07:51;101615.25;;;-8.29;59.59
74544;BME280;63016;55.030;38.710;2024-02-15T09:10:17;101614.41;;;-8.24;59.62
74544;BME280;63016;55.030;38.710;2024-02-15T09:12:44;101627.03;;;-8.14;59.62
74544;BME280;63016;55.030;38.710;2024-02-15T09:15:12;101627.00;;;-8.08;60.29
74544;BME280;63016;55.030;38.710;2024-02-15T09:17:38;101623.66;;;-8.07;60.09
74544;BME280;63016;55.030;38.710;2024-02-15T09:20:08;101634.56;;;-7.94;60.01
74544;BME280;63016;55.030;38.710;2024-02-15T09:22:34;101616.84;;;-7.92;59.40
74544;BME280;63016;55.030;38.710;2024-02-15T09:25:02;101632.00;;;-7.89;59.96
74544;BME280;63016;55.030;38.710;2024-02-15T09:27:28;101626.91;;;-7.85;59.56
74544;BME280;63016;55.030;38.710;2024-02-15T09:29:53;101621.00;;;-7.85;59.41
74544;BME280;63016;55.030;38.710;2024-02-15T09:32:21;101631.13;;;-7.79;59.75
74544;BME280;63016;55.030;38.710;2024-02-15T09:34:47;101627.75;;;-7.77;60.04
74544;BME280;63016;55.030;38.710;2024-02-15T09:37:13;101621.78;;;-7.68;59.90
74544;BME280;63016;55.030;38.710;2024-02-15T09:39:39;101622.59;;;-7.64;59.81
74544;BME280;63016;55.030;38.710;2024-02-15T09:42:05;101629.34;;;-7.62;59.54
74544;BME280;63016;55.030;38.710;2024-02-15T09:44:30;101631.00;;;-7.56;59.84
74544;BME280;63016;55.030;38.710;2024-02-15T09:47:05;101627.63;;;-7.52;60.04
74544;BME280;63016;55.030;38.710;2024-02-15T09:49:38;101636.00;;;-7.42;60.13
74544;BME280;63016;55.030;38.710;2024-02-15T09:52:08;101635.16;;;-7.38;60.42
74544;BME280;63016;55.030;38.710;2024-02-15T09:54:41;101637.63;;;-7.32;60.65
74544;BME280;63016;55.030;38.710;2024-02-15T09:57:11;101626.59;;;-7.23;60.06
74544;BME280;63016;55.030;38.710;2024-02-15T09:59:40;101616.47;;;-7.25;60.31
74544;BME280;63016;55.030;38.710;2024-02-15T10:02:07;101625.69;;;-7.16;60.44
74544;BME280;63016;55.030;38.710;2024-02-15T10:04:39;101615.50;;;-7.12;60.79
74544;BME280;63016;55.030;38.710;2024-02-15T10:07:05;101635.72;;;-7.00;59.93
74544;BME280;63016;55.030;38.710;2024-02-15T10:09:34;101629.81;;;-7.02;59.88
74544;BME280;63016;55.030;38.710;2024-02-15T10:12:01;101630.59;;;-6.96;59.97
74544;BME280;63016;55.030;38.710;2024-02-15T10:14:30;101636.56;;;-6.99;59.56
74544;BME280;63016;55.030;38.710;2024-02-15T10:16:56;101638.22;;;-6.96;59.71
74544;BME280;63016;55.030;38.710;2024-02-15T10:19:22;101642.47;;;-6.99;59.35
74544;BME280;63016;55.030;38.710;2024-02-15T10:21:54;101637.41;;;-6.99;60.20
74544;BME280;63016;55.030;38.710;2024-02-15T10:24:25;101627.25;;;-6.99;60.42
74544;BME280;63016;55.030;38.710;2024-02-15T10:26:51;101633.13;;;-6.93;59.66
74544;BME280;63016;55.030;38.710;2024-02-15T10:29:18;101627.19;;;-6.89;60.08
74544;BME280;63016;55.030;38.710;2024-02-15T10:31:58;101627.16;;;-6.85;60.17
74544;BME280;63016;55.030;38.710;2024-02-15T10:34:27;101633.88;;;-6.82;59.92
74544;BME280;63016;55.030;38.710;2024-02-15T10:37:14;101627.94;;;-6.80;60.12
74544;BME280;63016;55.030;38.710;2024-02-15T10:39:42;101620.41;;;-6.86;59.69
74544;BME280;63016;55.030;38.710;2024-02-15T10:42:08;101617.81;;;-6.81;60.04
74544;BME280;63016;55.030;38.710;2024-02-15T10:44:37;101622.00;;;-6.76;60.29
74544;BME280;63016;55.030;38.710;2024-02-15T10:47:06;101624.50;;;-6.73;60.39
74544;BME280;63016;55.030;38.710;2024-02-15T10:49:34;101624.41;;;-6.62;60.18
74544;BME280;63016;55.030;38.710;2024-02-15T10:52:00;101614.25;;;-6.63;60.01
74544;BME280;63016;55.030;38.710;2024-02-15T10:57:05;101626.91;;;-6.57;60.89
74544;BME280;63016;55.030;38.710;2024-02-15T10:59:35;101624.34;;;-6.53;60.84
74544;BME280;63016;55.030;38.710;2024-02-15T11:02:33;101627.63;;;-6.44;60.98
74544;BME280;63016;55.030;38.710;2024-02-15T11:05:06;101638.53;;;-6.35;60.91
74544;BME280;63016;55.030;38.710;2024-02-15T11:07:38;101641.81;;;-6.25;61.14
74544;BME280;63016;55.030;38.710;2024-02-15T11:10:07;101626.56;;;-6.22;60.68
74544;BME280;63016;55.030;38.710;2024-02-15T11:12:34;101645.06;;;-6.11;61.06
74544;BME280;63016;55.030;38.710;2024-02-15T11:15:00;101644.19;;;-6.08;60.03
74544;BME280;63016;55.030;38.710;2024-02-15T11:20:10;101643.31;;;-6.06;60.08
74544;BME280;63016;55.030;38.710;2024-02-15T11:22:56;101648.34;;;-6.03;59.78
74544;BME280;63016;55.030;38.710;2024-02-15T11:25:35;101643.31;;;-6.04;60.25
74544;BME280;63016;55.030;38.710;2024-02-15T11:30:47;101640.75;;;-6.04;60.47
74544;BME280;63016;55.030;38.710;2024-02-15T11:36:08;101636.50;;;-6.02;60.09
74544;BME280;63016;55.030;38.710;2024-02-15T11:38:35;101644.13;;;-6.02;59.76
74544;BME280;63016;55.030;38.710;2024-02-15T11:41:03;101643.28;;;-6.03;59.98
74544;BME280;63016;55.030;38.710;2024-02-15T11:46:20;101639.84;;;-6.00;60.00
74544;BME280;63016;55.030;38.710;2024-02-15T11:48:47;101638.25;;;-6.07;59.34
74544;BME280;63016;55.030;38.710;2024-02-15T11:54:20;101626.50;;;-6.19;60.12
74544;BME280;63016;55.030;38.710;2024-02-15T11:56:56;101640.03;;;-6.15;60.25
74544;BME280;63016;55.030;38.710;2024-02-15T11:59:47;101631.63;;;-6.22;60.25
74544;BME280;63016;55.030;38.710;2024-02-15T12:02:39;101653.50;;;-6.10;59.86
74544;BME280;63016;55.030;38.710;2024-02-15T12:05:23;101641.78;;;-6.21;59.39
74544;BME280;63016;55.030;38.710;2024-02-15T12:08:06;101638.47;;;-6.27;59.74
74544;BME280;63016;55.030;38.710;2024-02-15T12:11:00;101640.22;;;-6.34;59.80
74544;BME280;63016;55.030;38.710;2024-02-15T12:13:50;101648.66;;;-6.32;59.84
74544;BME280;63016;55.030;38.710;2024-02-15T12:16:35;101657.97;;;-6.31;59.81
74544;BME280;63016;55.030;38.710;2024-02-15T12:19:19;101663.06;;;-6.32;59.82
74544;BME280;63016;55.030;38.710;2024-02-15T12:21:44;101665.59;;;-6.34;59.76
74544;BME280;63016;55.030;38.710;2024-02-15T12:24:11;101663.94;;;-6.36;59.69
74544;BME280;63016;55.030;38.710;2024-02-15T12:26:36;101667.34;;;-6.37;60.27
74544;BME280;63016;55.030;38.710;2024-02-15T12:29:04;101651.28;;;-6.38;60.55
74544;BME280;63016;55.030;38.710;2024-02-15T12:31:31;101657.91;;;-6.26;60.42
74544;BME280;63016;55.030;38.710;2024-02-15T12:34:04;101652.84;;;-6.26;60.20
74544;BME280;63016;55.030;38.710;2024-02-15T12:36:36;101662.94;;;-6.20;59.72
74544;BME280;63016;55.030;38.710;2024-02-15T12:39:03;101663.81;;;-6.23;59.85
74544;BME280;63016;55.030;38.710;2024-02-15T12:41:39;101625.13;;;-6.48;60.19
74544;BME280;63016;55.030;38.710;2024-02-15T12:44:07;101649.50;;;-6.28;60.39
74544;BME280;63016;55.030;38.710;2024-02-15T12:46:35;101662.94;;;-6.20;60.22
74544;BME280;63016;55.030;38.710;2024-02-15T12:49:28;101668.00;;;-6.20;59.92
74544;BME280;63016;55.030;38.710;2024-02-15T12:55:28;101668.06;;;-6.23;60.02
74544;BME280;63016;55.030;38.710;2024-02-15T12:57:54;101661.25;;;-6.21;59.99
74544;BME280;63016;55.030;38.710;2024-02-15T13:00:24;101670.56;;;-6.20;60.05
74544;BME280;63016;55.030;38.710;2024-02-15T13:02:54;101671.44;;;-6.23;60.03
74544;BME280;63016;55.030;38.710;2024-02-15T13:05:21;101663.88;;;-6.30;60.20
74544;BME280;63016;55.030;38.710;2024-02-15T13:07:51;101670.53;;;-6.17;59.99